Time,TemperatureF,DewpointF,PressureIn,WindDirection,WindDirectionDegrees,WindSpeedMPH,WindSpeedGustMPH,Humidity,HourlyPrecipIn,Conditions,Clouds,dailyrainin,SoftwareType,DateUTC
2013-09-06 00:00:00,64.1,63.2,30.10,NW,306,0.0,0.0,97,0.00,,---,0.00,VWS V14.01,2013-09-06 04:00:00,
2013-09-06 00:01:00,63.2,62.6,30.09,NW,306,0.0,0.0,98,0.00,,---,0.00,VWS V14.01,2013-09-06 04:01:00,
2013-09-06 00:02:00,63.2,62.6,30.09,NW,306,0.0,0.0,98,0.00,,---,0.00,VWS V14.01,2013-09-06 04:02:00,
2013-09-06 00:05:00,64.1,63.2,30.10,NW,306,0.0,0.0,97,0.00,,---,0.00,VWS V14.01,2013-09-06 04:05:00,
2013-09-06 00:07:00,63.1,62.5,30.09,NW,306,0.0,0.0,98,0.00,,---,0.00,VWS V14.01,2013-09-06 04:07:00,
2013-09-06 00:10:00,64.0,63.1,30.10,NW,306,0.0,0.0,97,0.00,,---,0.00,VWS V14.01,2013-09-06 04:10:00,
2013-09-06 00:12:00,63.3,62.7,30.09,NW,306,0.0,0.0,98,0.00,,---,0.00,VWS V14.01,2013-09-06 04:12:00,
2013-09-06 00:15:00,63.8,62.9,30.10,NW,306,0.0,0.0,97,0.00,,---,0.00,VWS V14.01,2013-09-06 04:15:00,
2013-09-06 00:17:00,63.4,63.1,30.09,North,353,0.0,1.0,99,0.00,,---,0.00,VWS V14.01,2013-09-06 04:17:00,
2013-09-06 00:20:00,63.6,62.7,30.10,NW,305,0.0,0.0,97,0.00,,---,0.00,VWS V14.01,2013-09-06 04:20:00,
2013-09-06 00:22:00,63.5,62.9,30.10,North,353,0.0,0.0,98,0.00,,---,0.00,VWS V14.01,2013-09-06 04:22:00,
2013-09-06 00:25:00,65.0,63.8,30.09,NW,306,0.0,0.0,96,0.00,,---,0.00,VWS V14.01,2013-09-06 04:25:00,
2013-09-06 00:27:00,63.7,63.1,30.09,North,353,0.0,0.0,98,0.00,,---,0.00,VWS V14.01,2013-09-06 04:27:00,
2013-09-06 00:30:00,63.6,63.0,30.10,NW,306,0.0,0.0,98,0.00,,---,0.00,VWS V14.01,2013-09-06 04:30:00,
2013-09-06 00:32:00,63.9,63.3,30.09,North,356,0.0,1.0,98,0.00,,---,0.00,VWS V14.01,2013-09-06 04:32:00,
2013-09-06 00:35:00,63.7,63.1,30.10,NW,306,0.0,0.0,98,0.00,,---,0.00,VWS V14.01,2013-09-06 04:35:00,
2013-09-06 00:38:00,63.9,63.0,30.09,North,356,0.0,1.0,97,0.00,,---,0.00,VWS V14.01,2013-09-06 04:38:00,
2013-09-06 00:40:00,63.8,63.2,30.10,NW,306,0.0,0.0,98,0.00,,---,0.00,VWS V14.01,2013-09-06 04:40:00,
2013-09-06 00:43:00,63.9,63.0,30.09,North,349,0.0,1.0,97,0.00,,---,0.00,VWS V14.01,2013-09-06 04:43:00,
2013-09-06 00:45:00,63.7,63.1,30.10,NW,306,0.0,0.0,98,0.00,,---,0.00,VWS V14.01,2013-09-06 04:45:00,
2013-09-06 00:48:00,64.0,63.1,30.09,North,349,0.0,1.0,97,0.00,,---,0.00,VWS V14.01,2013-09-06 04:48:00,
2013-09-06 00:50:00,63.4,62.5,30.09,NW,306,0.0,0.0,97,0.00,,---,0.00,VWS V14.01,2013-09-06 04:50:00,
2013-09-06 00:53:00,64.0,63.1,30.09,North,354,0.0,0.0,97,0.00,,---,0.00,VWS V14.01,2013-09-06 04:53:00,
2013-09-06 00:55:00,63.3,62.7,30.10,NW,306,0.0,0.0,98,0.00,,---,0.00,VWS V14.01,2013-09-06 04:55:00,
2013-09-06 00:58:00,64.0,63.1,30.09,North,354,0.0,1.0,97,0.00,,---,0.00,VWS V14.01,2013-09-06 04:58:00,
2013-09-06 01:00:00,63.2,62.6,30.09,NW,306,0.0,0.0,98,0.00,,---,0.00,VWS V14.01,2013-09-06 05:00:00,
2013-09-06 01:03:00,64.1,62.9,30.09,North,354,0.0,1.0,96,0.00,,---,0.00,VWS V14.01,2013-09-06 05:03:00,
2013-09-06 01:05:00,63.2,62.6,30.09,NW,306,0.0,0.0,98,0.00,,---,0.00,VWS V14.01,2013-09-06 05:05:00,
2013-09-06 01:08:00,64.1,63.2,30.09,North,354,0.0,0.0,97,0.00,,---,0.00,VWS V14.01,2013-09-06 05:08:00,
2013-09-06 01:10:00,63.2,62.6,30.09,NW,306,0.0,0.0,98,0.00,,---,0.00,VWS V14.01,2013-09-06 05:10:00,
2013-09-06 01:13:00,64.0,62.8,30.09,North,354,0.0,0.0,96,0.00,,---,0.00,VWS V14.01,2013-09-06 05:13:00,
2013-09-06 01:15:00,63.4,62.8,30.09,North,353,0.0,1.0,98,0.00,,---,0.00,VWS V14.01,2013-09-06 05:15:00,
2013-09-06 01:18:00,63.8,62.6,30.09,North,354,0.0,1.0,96,0.00,,---,0.00,VWS V14.01,2013-09-06 05:18:00,
2013-09-06 01:20:00,63.5,63.2,30.09,North,353,0.0,1.0,99,0.00,,---,0.00,VWS V14.01,2013-09-06 05:20:00,
2013-09-06 01:23:00,63.6,62.4,30.09,North,354,0.0,0.0,96,0.00,,---,0.00,VWS V14.01,2013-09-06 05:23:00,
2013-09-06 01:25:00,63.6,63.0,30.09,North,353,0.0,0.0,98,0.00,,---,0.00,VWS V14.01,2013-09-06 05:25:00,
2013-09-06 01:28:00,63.5,62.3,30.09,North,354,0.0,0.0,96,0.00,,---,0.00,VWS V14.01,2013-09-06 05:28:00,
2013-09-06 01:30:00,63.8,63.2,30.09,North,353,0.0,1.0,98,0.00,,---,0.00,VWS V14.01,2013-09-06 05:30:00,
2013-09-06 01:33:00,63.4,62.2,30.09,North,354,0.0,0.0,96,0.00,,---,0.00,VWS V14.01,2013-09-06 05:33:00,
2013-09-06 01:35:00,64.0,63.4,30.09,North,356,0.0,1.0,98,0.00,,---,0.00,VWS V14.01,2013-09-06 05:35:00,
2013-09-06 01:38:00,63.3,62.1,30.09,North,354,0.0,0.0,96,0.00,,---,0.00,VWS V14.01,2013-09-06 05:38:00,
2013-09-06 01:40:00,63.9,63.0,30.09,North,350,0.0,1.0,97,0.00,,---,0.00,VWS V14.01,2013-09-06 05:40:00,
2013-09-06 01:43:00,63.1,61.9,30.09,North,354,0.0,0.0,96,0.00,,---,0.00,VWS V14.01,2013-09-06 05:43:00,
2013-09-06 01:45:00,63.9,63.0,30.09,North,349,0.0,1.0,97,0.00,,---,0.00,VWS V14.01,2013-09-06 05:45:00,
2013-09-06 01:48:00,62.9,61.8,30.09,North,354,0.0,0.0,96,0.00,,---,0.00,VWS V14.01,2013-09-06 05:48:00,
2013-09-06 01:50:00,64.0,63.1,30.09,North,349,0.0,1.0,97,0.00,,---,0.00,VWS V14.01,2013-09-06 05:50:00,
2013-09-06 01:53:00,62.6,61.5,30.08,North,354,0.0,0.0,96,0.00,,---,0.00,VWS V14.01,2013-09-06 05:53:00,
2013-09-06 01:55:00,64.0,63.1,30.09,North,354,0.0,0.0,97,0.00,,---,0.00,VWS V14.01,2013-09-06 05:55:00,
2013-09-06 01:58:00,62.3,61.4,30.08,North,354,0.0,0.0,97,0.00,,---,0.00,VWS V14.01,2013-09-06 05:58:00,
2013-09-06 02:00:00,64.0,63.1,30.09,North,354,0.0,1.0,97,0.00,,---,0.00,VWS V14.01,2013-09-06 06:00:00,
2013-09-06 02:03:00,62.2,61.3,30.08,North,354,0.0,0.0,97,0.00,,---,0.00,VWS V14.01,2013-09-06 06:03:00,
2013-09-06 02:05:00,64.1,62.9,30.09,North,354,0.0,1.0,96,0.00,,---,0.00,VWS V14.01,2013-09-06 06:05:00,
2013-09-06 02:08:00,62.1,61.2,30.08,North,354,0.0,0.0,97,0.00,,---,0.00,VWS V14.01,2013-09-06 06:08:00,
2013-09-06 02:10:00,64.1,62.9,30.09,North,354,0.0,0.0,96,0.00,,---,0.00,VWS V14.01,2013-09-06 06:10:00,
2013-09-06 02:13:00,61.9,61.0,30.08,North,354,0.0,0.0,97,0.00,,---,0.00,VWS V14.01,2013-09-06 06:13:00,
2013-09-06 02:15:00,63.9,62.7,30.09,North,354,0.0,0.0,96,0.00,,---,0.00,VWS V14.01,2013-09-06 06:15:00,
2013-09-06 02:18:00,61.9,61.3,30.08,North,354,0.0,0.0,98,0.00,,---,0.00,VWS V14.01,2013-09-06 06:18:00,
2013-09-06 02:20:00,63.7,62.5,30.09,North,354,0.0,1.0,96,0.00,,---,0.00,VWS V14.01,2013-09-06 06:20:00,
2013-09-06 02:23:00,61.8,61.2,30.08,North,354,0.0,0.0,98,0.00,,---,0.00,VWS V14.01,2013-09-06 06:23:00,
2013-09-06 02:25:00,63.5,62.3,30.09,North,354,0.0,0.0,96,0.00,,---,0.00,VWS V14.01,2013-09-06 06:25:00,
2013-09-06 02:28:00,61.8,61.2,30.08,North,354,0.0,0.0,98,0.00,,---,0.00,VWS V14.01,2013-09-06 06:28:00,
2013-09-06 02:30:00,63.5,62.3,30.09,North,354,0.0,0.0,96,0.00,,---,0.00,VWS V14.01,2013-09-06 06:30:00,
2013-09-06 02:33:00,61.8,61.2,30.08,North,354,0.0,0.0,98,0.00,,---,0.00,VWS V14.01,2013-09-06 06:33:00,
2013-09-06 02:35:00,63.3,62.1,30.09,North,354,0.0,0.0,96,0.00,,---,0.00,VWS V14.01,2013-09-06 06:35:00,
2013-09-06 02:38:00,61.8,61.2,30.08,North,354,0.0,0.0,98,0.00,,---,0.00,VWS V14.01,2013-09-06 06:38:00,
2013-09-06 02:40:00,63.3,62.1,30.09,North,354,0.0,0.0,96,0.00,,---,0.00,VWS V14.01,2013-09-06 06:40:00,
2013-09-06 02:43:00,61.8,61.2,30.08,North,354,0.0,0.0,98,0.00,,---,0.00,VWS V14.01,2013-09-06 06:43:00,
2013-09-06 02:45:00,63.1,61.9,30.09,North,354,0.0,0.0,96,0.00,,---,0.00,VWS V14.01,2013-09-06 06:45:00,
2013-09-06 02:48:00,61.7,61.1,30.08,North,354,0.0,0.0,98,0.00,,---,0.00,VWS V14.01,2013-09-06 06:48:00,
2013-09-06 02:50:00,62.8,61.7,30.09,North,354,0.0,0.0,96,0.00,,---,0.00,VWS V14.01,2013-09-06 06:50:00,
2013-09-06 02:53:00,61.6,61.0,30.08,North,354,0.0,0.0,98,0.00,,---,0.00,VWS V14.01,2013-09-06 06:53:00,
2013-09-06 02:55:00,62.5,61.3,30.08,North,354,0.0,0.0,96,0.00,,---,0.00,VWS V14.01,2013-09-06 06:55:00,
2013-09-06 02:58:00,61.4,60.8,30.08,North,354,0.0,0.0,98,0.00,,---,0.00,VWS V14.01,2013-09-06 06:58:00,
2013-09-06 03:00:00,62.3,61.4,30.08,North,354,0.0,0.0,97,0.00,,---,0.00,VWS V14.01,2013-09-06 07:00:00,
2013-09-06 03:03:00,61.4,61.1,30.08,North,354,0.0,0.0,99,0.00,,---,0.00,VWS V14.01,2013-09-06 07:03:00,
2013-09-06 03:05:00,62.2,61.3,30.08,North,354,0.0,0.0,97,0.00,,---,0.00,VWS V14.01,2013-09-06 07:05:00,
2013-09-06 03:08:00,61.3,60.7,30.08,North,354,0.0,0.0,98,0.00,,---,0.00,VWS V14.01,2013-09-06 07:08:00,
2013-09-06 03:10:00,62.1,61.2,30.08,North,354,0.0,0.0,97,0.00,,---,0.00,VWS V14.01,2013-09-06 07:10:00,
2013-09-06 03:13:00,61.4,61.1,30.08,North,354,0.0,1.0,99,0.00,,---,0.00,VWS V14.01,2013-09-06 07:13:00,
2013-09-06 03:15:00,61.9,61.3,30.08,North,354,0.0,0.0,98,0.00,,---,0.00,VWS V14.01,2013-09-06 07:15:00,
2013-09-06 03:18:00,61.6,61.3,30.08,North,354,0.0,0.0,99,0.00,,---,0.00,VWS V14.01,2013-09-06 07:18:00,
2013-09-06 03:20:00,61.9,61.3,30.08,North,354,0.0,0.0,98,0.00,,---,0.00,VWS V14.01,2013-09-06 07:20:00,
2013-09-06 03:23:00,61.4,61.1,30.08,North,354,0.0,0.0,99,0.00,,---,0.00,VWS V14.01,2013-09-06 07:23:00,
2013-09-06 03:25:00,61.8,61.2,30.08,North,354,0.0,0.0,98,0.00,,---,0.00,VWS V14.01,2013-09-06 07:25:00,
2013-09-06 03:28:00,61.2,60.6,30.08,North,354,0.0,0.0,98,0.00,,---,0.00,VWS V14.01,2013-09-06 07:28:00,
2013-09-06 03:30:00,61.8,61.2,30.08,North,354,0.0,0.0,98,0.00,,---,0.00,VWS V14.01,2013-09-06 07:30:00,
2013-09-06 03:33:00,61.1,60.8,30.07,North,354,0.0,0.0,99,0.00,,---,0.00,VWS V14.01,2013-09-06 07:33:00,
2013-09-06 03:35:00,61.8,61.2,30.08,North,354,0.0,0.0,98,0.00,,---,0.00,VWS V14.01,2013-09-06 07:35:00,
2013-09-06 03:38:00,61.1,60.8,30.08,North,354,0.0,0.0,99,0.00,,---,0.00,VWS V14.01,2013-09-06 07:38:00,
2013-09-06 03:40:00,61.8,61.2,30.08,North,354,0.0,0.0,98,0.00,,---,0.00,VWS V14.01,2013-09-06 07:40:00,
2013-09-06 03:43:00,61.1,60.8,30.08,North,354,0.0,0.0,99,0.00,,---,0.00,VWS V14.01,2013-09-06 07:43:00,
2013-09-06 03:45:00,61.8,61.2,30.08,North,354,0.0,0.0,98,0.00,,---,0.00,VWS V14.01,2013-09-06 07:45:00,
2013-09-06 03:48:00,61.1,60.8,30.08,North,354,0.0,0.0,99,0.00,,---,0.00,VWS V14.01,2013-09-06 07:48:00,
2013-09-06 03:50:00,61.7,61.1,30.08,North,354,0.0,0.0,98,0.00,,---,0.00,VWS V14.01,2013-09-06 07:50:00,
2013-09-06 03:53:00,60.9,60.6,30.08,North,354,0.0,0.0,99,0.00,,---,0.00,VWS V14.01,2013-09-06 07:53:00,
2013-09-06 03:55:00,61.6,61.0,30.08,North,354,0.0,0.0,98,0.00,,---,0.00,VWS V14.01,2013-09-06 07:55:00,
2013-09-06 03:58:00,60.8,60.5,30.08,North,354,0.0,0.0,99,0.00,,---,0.00,VWS V14.01,2013-09-06 07:58:00,
2013-09-06 04:00:00,61.4,60.8,30.08,North,354,0.0,0.0,98,0.00,,---,0.00,VWS V14.01,2013-09-06 08:00:00,
2013-09-06 04:03:00,60.8,60.5,30.08,North,354,0.0,0.0,99,0.00,,---,0.00,VWS V14.01,2013-09-06 08:03:00,
2013-09-06 04:05:00,61.4,60.8,30.08,North,354,0.0,0.0,98,0.00,,---,0.00,VWS V14.01,2013-09-06 08:05:00,
2013-09-06 04:08:00,60.7,60.4,30.08,North,354,0.0,0.0,99,0.00,,---,0.00,VWS V14.01,2013-09-06 08:08:00,
2013-09-06 04:10:00,61.2,60.6,30.08,North,354,0.0,0.0,98,0.00,,---,0.00,VWS V14.01,2013-09-06 08:10:00,
2013-09-06 04:13:00,60.5,60.2,30.08,North,354,0.0,0.0,99,0.00,,---,0.00,VWS V14.01,2013-09-06 08:13:00,
2013-09-06 04:15:00,61.6,61.3,30.08,North,354,0.0,1.0,99,0.00,,---,0.00,VWS V14.01,2013-09-06 08:15:00,
2013-09-06 04:18:00,60.6,60.3,30.08,North,354,0.0,0.0,99,0.00,,---,0.00,VWS V14.01,2013-09-06 08:18:00,
2013-09-06 04:20:00,61.5,61.2,30.08,North,354,0.0,0.0,99,0.00,,---,0.00,VWS V14.01,2013-09-06 08:20:00,
2013-09-06 04:23:00,60.5,60.2,30.08,North,354,0.0,0.0,99,0.00,,---,0.00,VWS V14.01,2013-09-06 08:23:00,
2013-09-06 04:25:00,61.3,60.7,30.08,North,354,0.0,0.0,98,0.00,,---,0.00,VWS V14.01,2013-09-06 08:25:00,
2013-09-06 04:28:00,60.4,60.1,30.08,North,354,0.0,0.0,99,0.00,,---,0.00,VWS V14.01,2013-09-06 08:28:00,
2013-09-06 04:30:00,61.1,60.5,30.08,North,354,0.0,0.0,98,0.00,,---,0.00,VWS V14.01,2013-09-06 08:30:00,
2013-09-06 04:33:00,60.3,60.0,30.08,North,354,0.0,0.0,99,0.00,,---,0.00,VWS V14.01,2013-09-06 08:33:00,
2013-09-06 04:35:00,61.1,60.8,30.08,North,354,0.0,0.0,99,0.00,,---,0.00,VWS V14.01,2013-09-06 08:35:00,
2013-09-06 04:38:00,60.3,60.0,30.08,North,354,0.0,0.0,99,0.00,,---,0.00,VWS V14.01,2013-09-06 08:38:00,
2013-09-06 04:40:00,61.1,60.8,30.07,North,354,0.0,1.0,99,0.00,,---,0.00,VWS V14.01,2013-09-06 08:40:00,
2013-09-06 04:43:00,60.3,60.0,30.07,North,354,0.0,0.0,99,0.00,,---,0.00,VWS V14.01,2013-09-06 08:43:00,
2013-09-06 04:45:00,61.2,60.9,30.07,North,354,0.0,0.0,99,0.00,,---,0.00,VWS V14.01,2013-09-06 08:45:00,
2013-09-06 04:48:00,60.3,60.0,30.07,North,354,0.0,0.0,99,0.00,,---,0.00,VWS V14.01,2013-09-06 08:48:00,
2013-09-06 04:50:00,61.0,60.7,30.08,North,354,0.0,0.0,99,0.00,,---,0.00,VWS V14.01,2013-09-06 08:50:00,
2013-09-06 04:53:00,60.3,60.0,30.07,North,354,0.0,0.0,99,0.00,,---,0.00,VWS V14.01,2013-09-06 08:53:00,
2013-09-06 04:55:00,60.8,60.5,30.08,North,354,0.0,0.0,99,0.00,,---,0.00,VWS V14.01,2013-09-06 08:55:00,
2013-09-06 04:58:00,60.3,60.0,30.07,North,354,0.0,0.0,99,0.00,,---,0.00,VWS V14.01,2013-09-06 08:58:00,
2013-09-06 05:00:00,60.9,60.6,30.08,North,354,0.0,0.0,99,0.00,,---,0.00,VWS V14.01,2013-09-06 09:00:00,
2013-09-06 05:03:00,60.5,60.2,30.07,North,354,0.0,0.0,99,0.00,,---,0.00,VWS V14.01,2013-09-06 09:03:00,
2013-09-06 05:05:00,60.7,60.4,30.08,North,354,0.0,0.0,99,0.00,,---,0.00,VWS V14.01,2013-09-06 09:05:00,
2013-09-06 05:08:00,60.7,60.4,30.07,North,354,0.0,0.0,99,0.00,,---,0.00,VWS V14.01,2013-09-06 09:08:00,
2013-09-06 05:10:00,60.7,60.4,30.08,North,354,0.0,0.0,99,0.00,,---,0.00,VWS V14.01,2013-09-06 09:10:00,
2013-09-06 05:13:00,60.6,60.3,30.07,North,354,0.0,0.0,99,0.00,,---,0.00,VWS V14.01,2013-09-06 09:13:00,
2013-09-06 05:15:00,60.6,60.3,30.08,North,354,0.0,0.0,99,0.00,,---,0.00,VWS V14.01,2013-09-06 09:15:00,
2013-09-06 05:18:00,60.5,60.2,30.07,North,354,0.0,0.0,99,0.00,,---,0.00,VWS V14.01,2013-09-06 09:18:00,
2013-09-06 05:20:00,60.6,60.3,30.08,North,354,0.0,0.0,99,0.00,,---,0.00,VWS V14.01,2013-09-06 09:20:00,
2013-09-06 05:23:00,60.5,60.2,30.08,North,354,0.0,0.0,99,0.00,,---,0.00,VWS V14.01,2013-09-06 09:23:00,
2013-09-06 05:25:00,60.5,60.2,30.08,North,354,0.0,0.0,99,0.00,,---,0.00,VWS V14.01,2013-09-06 09:25:00,
2013-09-06 05:28:00,60.5,60.2,30.08,North,354,0.0,0.0,99,0.00,,---,0.00,VWS V14.01,2013-09-06 09:28:00,
2013-09-06 05:30:00,60.4,60.1,30.08,North,354,0.0,0.0,99,0.00,,---,0.00,VWS V14.01,2013-09-06 09:30:00,
2013-09-06 05:33:00,60.4,60.1,30.08,North,354,0.0,0.0,99,0.00,,---,0.00,VWS V14.01,2013-09-06 09:33:00,
2013-09-06 05:35:00,60.4,60.1,30.08,North,354,0.0,0.0,99,0.00,,---,0.00,VWS V14.01,2013-09-06 09:35:00,
2013-09-06 05:38:00,60.2,59.9,30.08,North,354,0.0,0.0,99,0.00,,---,0.00,VWS V14.01,2013-09-06 09:38:00,
2013-09-06 05:40:00,60.3,60.0,30.08,North,354,0.0,0.0,99,0.00,,---,0.00,VWS V14.01,2013-09-06 09:40:00,
2013-09-06 05:43:00,60.1,59.8,30.08,North,354,0.0,0.0,99,0.00,,---,0.00,VWS V14.01,2013-09-06 09:43:00,
2013-09-06 05:45:00,60.3,60.0,30.07,North,354,0.0,0.0,99,0.00,,---,0.00,VWS V14.01,2013-09-06 09:45:00,
2013-09-06 05:48:00,60.1,59.8,30.08,North,354,0.0,1.0,99,0.00,,---,0.00,VWS V14.01,2013-09-06 09:48:00,
2013-09-06 05:50:00,60.3,60.0,30.07,North,354,0.0,0.0,99,0.00,,---,0.00,VWS V14.01,2013-09-06 09:50:00,
2013-09-06 05:53:00,60.1,59.8,30.08,North,354,0.0,0.0,99,0.00,,---,0.00,VWS V14.01,2013-09-06 09:53:00,
2013-09-06 05:55:00,60.3,60.0,30.07,North,354,0.0,0.0,99,0.00,,---,0.00,VWS V14.01,2013-09-06 09:55:00,
2013-09-06 05:58:00,60.4,60.1,30.08,North,354,0.0,0.0,99,0.00,,---,0.00,VWS V14.01,2013-09-06 09:58:00,
2013-09-06 06:00:00,60.4,60.1,30.07,North,354,0.0,1.0,99,0.00,,---,0.00,VWS V14.01,2013-09-06 10:00:00,
2013-09-06 06:03:00,60.3,60.0,30.08,North,354,0.0,0.0,99,0.00,,---,0.00,VWS V14.01,2013-09-06 10:03:00,
2013-09-06 06:05:00,60.5,60.2,30.07,North,354,0.0,0.0,99,0.00,,---,0.00,VWS V14.01,2013-09-06 10:05:00,
2013-09-06 06:08:00,60.1,59.8,30.08,North,354,0.0,0.0,99,0.00,,---,0.00,VWS V14.01,2013-09-06 10:08:00,
2013-09-06 06:10:00,60.6,60.3,30.07,North,354,0.0,0.0,99,0.00,,---,0.00,VWS V14.01,2013-09-06 10:10:00,
2013-09-06 06:13:00,60.3,60.0,30.08,North,354,0.0,1.0,99,0.00,,---,0.00,VWS V14.01,2013-09-06 10:13:00,
2013-09-06 06:15:00,60.6,60.3,30.07,North,354,0.0,0.0,99,0.00,,---,0.00,VWS V14.01,2013-09-06 10:15:00,
2013-09-06 06:18:00,60.5,60.5,30.08,North,354,0.0,0.0,100,0.00,,---,0.00,VWS V14.01,2013-09-06 10:18:00,
2013-09-06 06:20:00,60.5,60.2,30.07,North,354,0.0,0.0,99,0.00,,---,0.00,VWS V14.01,2013-09-06 10:20:00,
2013-09-06 06:23:00,60.7,60.7,30.08,North,354,0.0,1.0,100,0.00,,---,0.00,VWS V14.01,2013-09-06 10:23:00,
2013-09-06 06:25:00,60.5,60.2,30.07,North,354,0.0,0.0,99,0.00,,---,0.00,VWS V14.01,2013-09-06 10:25:00,
2013-09-06 06:28:00,60.8,60.8,30.08,North,349,0.0,1.0,100,0.00,,---,0.00,VWS V14.01,2013-09-06 10:28:00,
2013-09-06 06:30:00,60.5,60.2,30.08,North,354,0.0,1.0,99,0.00,,---,0.00,VWS V14.01,2013-09-06 10:30:00,
2013-09-06 06:33:00,60.9,60.9,30.08,North,349,0.0,1.0,100,0.00,,---,0.00,VWS V14.01,2013-09-06 10:33:00,
2013-09-06 06:35:00,60.3,60.0,30.08,North,354,0.0,0.0,99,0.00,,---,0.00,VWS V14.01,2013-09-06 10:35:00,
2013-09-06 06:38:00,61.0,61.0,30.08,North,349,0.0,1.0,100,0.00,,---,0.00,VWS V14.01,2013-09-06 10:38:00,
2013-09-06 06:40:00,60.1,59.8,30.08,North,354,0.0,0.0,99,0.00,,---,0.00,VWS V14.01,2013-09-06 10:40:00,
2013-09-06 06:43:00,61.1,60.8,30.08,North,349,0.0,1.0,99,0.00,,---,0.00,VWS V14.01,2013-09-06 10:43:00,
2013-09-06 06:45:00,60.1,59.8,30.08,North,354,0.0,0.0,99,0.00,,---,0.00,VWS V14.01,2013-09-06 10:45:00,
2013-09-06 06:48:00,61.2,60.9,30.08,North,349,0.0,1.0,99,0.00,,---,0.00,VWS V14.01,2013-09-06 10:48:00,
2013-09-06 06:50:00,60.1,59.8,30.08,North,354,0.0,1.0,99,0.00,,---,0.00,VWS V14.01,2013-09-06 10:50:00,
2013-09-06 06:53:00,61.3,61.0,30.08,North,349,0.0,0.0,99,0.00,,---,0.00,VWS V14.01,2013-09-06 10:53:00,
2013-09-06 06:55:00,60.2,59.9,30.08,North,354,0.0,0.0,99,0.00,,---,0.00,VWS V14.01,2013-09-06 10:55:00,
2013-09-06 06:58:00,61.4,61.1,30.08,North,349,0.0,1.0,99,0.00,,---,0.00,VWS V14.01,2013-09-06 10:58:00,
2013-09-06 07:00:00,60.4,60.1,30.08,North,354,0.0,0.0,99,0.00,,---,0.00,VWS V14.01,2013-09-06 11:00:00,
2013-09-06 07:03:00,61.5,61.2,30.08,North,349,0.0,0.0,99,0.00,,---,0.00,VWS V14.01,2013-09-06 11:03:00,
2013-09-06 07:05:00,60.2,59.9,30.08,North,354,0.0,0.0,99,0.00,,---,0.00,VWS V14.01,2013-09-06 11:05:00,
2013-09-06 07:08:00,61.6,61.3,30.08,North,349,0.0,0.0,99,0.00,,---,0.00,VWS V14.01,2013-09-06 11:08:00,
2013-09-06 07:10:00,60.1,59.8,30.08,North,354,0.0,0.0,99,0.00,,---,0.00,VWS V14.01,2013-09-06 11:10:00,
2013-09-06 07:13:00,61.8,61.5,30.09,North,349,0.0,1.0,99,0.00,,---,0.00,VWS V14.01,2013-09-06 11:13:00,
2013-09-06 07:15:00,60.3,60.3,30.08,North,354,0.0,1.0,100,0.00,,---,0.00,VWS V14.01,2013-09-06 11:15:00,
2013-09-06 07:18:00,62.3,61.7,30.09,NNE,15,0.0,1.0,98,0.00,,---,0.00,VWS V14.01,2013-09-06 11:18:00,
2013-09-06 07:20:00,60.5,60.5,30.08,North,354,0.0,0.0,100,0.00,,---,0.00,VWS V14.01,2013-09-06 11:20:00,
2013-09-06 07:23:00,62.6,61.7,30.09,NNE,15,0.0,1.0,97,0.00,,---,0.00,VWS V14.01,2013-09-06 11:23:00,
2013-09-06 07:25:00,60.7,60.7,30.08,North,354,0.0,1.0,100,0.00,,---,0.00,VWS V14.01,2013-09-06 11:25:00,
2013-09-06 07:28:00,63.1,61.9,30.09,NNE,31,1.0,2.0,96,0.00,,---,0.00,VWS V14.01,2013-09-06 11:28:00,
2013-09-06 07:30:00,60.8,60.8,30.08,North,349,0.0,1.0,100,0.00,,---,0.00,VWS V14.01,2013-09-06 11:30:00,
2013-09-06 07:33:00,63.3,61.8,30.09,North,5,0.0,1.0,95,0.00,,---,0.00,VWS V14.01,2013-09-06 11:33:00,
2013-09-06 07:35:00,60.9,60.9,30.08,North,349,0.0,1.0,100,0.00,,---,0.00,VWS V14.01,2013-09-06 11:35:00,
2013-09-06 07:38:00,63.6,62.2,30.09,NNE,26,1.0,2.0,95,0.00,,---,0.00,VWS V14.01,2013-09-06 11:38:00,
2013-09-06 07:40:00,61.0,61.0,30.08,North,349,0.0,1.0,100,0.00,,---,0.00,VWS V14.01,2013-09-06 11:40:00,
2013-09-06 07:43:00,63.8,62.0,30.09,NNE,26,0.0,1.0,94,0.00,,---,0.00,VWS V14.01,2013-09-06 11:43:00,
2013-09-06 07:45:00,61.1,60.8,30.08,North,349,0.0,1.0,99,0.00,,---,0.00,VWS V14.01,2013-09-06 11:45:00,
2013-09-06 07:48:00,63.9,62.1,30.10,NNE,30,0.0,1.0,94,0.00,,---,0.00,VWS V14.01,2013-09-06 11:48:00,
2013-09-06 07:50:00,61.2,60.9,30.08,North,349,0.0,1.0,99,0.00,,---,0.00,VWS V14.01,2013-09-06 11:50:00,
2013-09-06 07:53:00,64.3,62.5,30.10,NNE,18,1.0,1.0,94,0.00,,---,0.00,VWS V14.01,2013-09-06 11:53:00,
2013-09-06 07:55:00,61.3,61.0,30.08,North,349,0.0,1.0,99,0.00,,---,0.00,VWS V14.01,2013-09-06 11:55:00,
2013-09-06 07:58:00,65.0,62.9,30.10,NNE,24,0.0,1.0,93,0.00,,---,0.00,VWS V14.01,2013-09-06 11:58:00,
2013-09-06 08:00:00,61.4,61.1,30.08,North,349,0.0,1.0,99,0.00,,---,0.00,VWS V14.01,2013-09-06 12:00:00,
2013-09-06 08:03:00,65.7,63.3,30.10,NE,35,0.0,1.0,92,0.00,,---,0.00,VWS V14.01,2013-09-06 12:03:00,
2013-09-06 08:05:00,61.5,61.2,30.08,North,349,0.0,0.0,99,0.00,,---,0.00,VWS V14.01,2013-09-06 12:05:00,
2013-09-06 08:08:00,66.3,63.3,30.10,NE,37,1.0,2.0,90,0.00,,---,0.00,VWS V14.01,2013-09-06 12:08:00,
2013-09-06 08:10:00,61.6,61.3,30.08,North,349,0.0,0.0,99,0.00,,---,0.00,VWS V14.01,2013-09-06 12:10:00,
2013-09-06 08:13:00,66.7,63.7,30.10,NE,41,0.0,2.0,90,0.00,,---,0.00,VWS V14.01,2013-09-06 12:13:00,
2013-09-06 08:15:00,61.9,61.6,30.09,North,350,0.0,1.0,99,0.00,,---,0.00,VWS V14.01,2013-09-06 12:15:00,
2013-09-06 08:18:00,67.1,64.4,30.10,NE,39,0.0,2.0,91,0.00,,---,0.00,VWS V14.01,2013-09-06 12:18:00,
2013-09-06 08:20:00,62.3,61.4,30.09,NNE,15,0.0,1.0,97,0.00,,---,0.00,VWS V14.01,2013-09-06 12:20:00,
2013-09-06 08:23:00,67.4,64.4,30.10,NE,39,0.0,1.0,90,0.00,,---,0.00,VWS V14.01,2013-09-06 12:23:00,
2013-09-06 08:25:00,62.7,61.8,30.09,NNE,13,0.0,1.0,97,0.00,,---,0.00,VWS V14.01,2013-09-06 12:25:00,
2013-09-06 08:28:00,68.0,65.0,30.11,ENE,69,0.0,1.0,90,0.00,,---,0.00,VWS V14.01,2013-09-06 12:28:00,
2013-09-06 08:30:00,63.2,62.0,30.09,NNE,20,0.0,2.0,96,0.00,,---,0.00,VWS V14.01,2013-09-06 12:30:00,
2013-09-06 08:33:00,68.6,64.6,30.11,ENE,68,0.0,1.0,87,0.00,,---,0.00,VWS V14.01,2013-09-06 12:33:00,
2013-09-06 08:35:00,63.4,62.0,30.09,NNE,27,0.0,1.0,95,0.00,,---,0.00,VWS V14.01,2013-09-06 12:35:00,
2013-09-06 08:38:00,69.2,64.8,30.11,ENE,68,0.0,1.0,86,0.00,,---,0.00,VWS V14.01,2013-09-06 12:38:00,
2013-09-06 08:40:00,63.6,62.2,30.09,NNE,28,0.0,2.0,95,0.00,,---,0.00,VWS V14.01,2013-09-06 12:40:00,
2013-09-06 08:43:00,69.6,64.9,30.11,ENE,63,0.0,1.0,85,0.00,,---,0.00,VWS V14.01,2013-09-06 12:43:00,
2013-09-06 08:45:00,63.8,62.0,30.09,NNE,26,0.0,1.0,94,0.00,,---,0.00,VWS V14.01,2013-09-06 12:45:00,
2013-09-06 08:48:00,69.7,64.7,30.11,ENE,77,0.0,2.0,84,0.00,,---,0.00,VWS V14.01,2013-09-06 12:48:00,
2013-09-06 08:50:00,64.0,62.2,30.10,NNE,30,0.0,1.0,94,0.00,,---,0.00,VWS V14.01,2013-09-06 12:50:00,
2013-09-06 08:53:00,70.1,64.4,30.11,NE,42,1.0,2.0,82,0.00,,---,0.00,VWS V14.01,2013-09-06 12:53:00,
2013-09-06 08:55:00,64.5,62.4,30.10,NNE,18,0.0,1.0,93,0.00,,---,0.00,VWS V14.01,2013-09-06 12:55:00,
2013-09-06 08:58:00,70.2,64.4,30.11,NE,40,0.0,1.0,82,0.00,,---,0.00,VWS V14.01,2013-09-06 12:58:00,
2013-09-06 09:00:00,65.1,62.7,30.10,NNE,31,0.0,2.0,92,0.00,,---,0.00,VWS V14.01,2013-09-06 13:00:00,
2013-09-06 09:03:00,70.6,64.8,30.11,ENE,78,2.0,2.0,82,0.00,,---,0.00,VWS V14.01,2013-09-06 13:03:00,
2013-09-06 09:05:00,65.9,63.2,30.10,NNE,32,0.0,1.0,91,0.00,,---,0.00,VWS V14.01,2013-09-06 13:05:00,
2013-09-06 09:08:00,70.8,65.0,30.11,South,171,0.0,2.0,82,0.00,,---,0.00,VWS V14.01,2013-09-06 13:08:00,
2013-09-06 09:10:00,61.6,61.3,30.08,North,349,0.0,0.0,99,0.00,,---,0.00,VWS V14.01,2013-09-06 13:10:00,
2013-09-06 09:13:00,71.0,64.9,30.12,NE,54,1.0,5.0,81,0.00,,---,0.00,VWS V14.01,2013-09-06 13:13:00,
2013-09-06 09:15:00,66.8,63.5,30.10,NE,41,2.0,2.0,89,0.00,,---,0.00,VWS V14.01,2013-09-06 13:15:00,
2013-09-06 09:18:00,71.0,64.9,30.12,NE,56,1.0,5.0,81,0.00,,---,0.00,VWS V14.01,2013-09-06 13:18:00,
2013-09-06 09:20:00,67.1,64.1,30.10,NE,39,0.0,2.0,90,0.00,,---,0.00,VWS V14.01,2013-09-06 13:20:00,
2013-09-06 09:23:00,71.2,65.1,30.12,ENE,57,1.0,4.0,81,0.00,,---,0.00,VWS V14.01,2013-09-06 13:23:00,
2013-09-06 09:25:00,62.7,61.8,30.09,NNE,13,0.0,1.0,97,0.00,,---,0.00,VWS V14.01,2013-09-06 13:25:00,
2013-09-06 09:28:00,71.4,65.3,30.12,NE,45,1.0,4.0,81,0.00,,---,0.00,VWS V14.01,2013-09-06 13:28:00,
2013-09-06 09:30:00,68.2,64.5,30.11,ENE,69,0.0,1.0,88,0.00,,---,0.00,VWS V14.01,2013-09-06 13:30:00,
2013-09-06 09:33:00,71.8,66.0,30.11,NE,50,1.0,4.0,82,0.00,,---,0.00,VWS V14.01,2013-09-06 13:33:00,
2013-09-06 09:35:00,68.8,65.4,30.11,ENE,68,0.0,1.0,89,0.00,,---,0.00,VWS V14.01,2013-09-06 13:35:00,
2013-09-06 09:38:00,72.4,65.9,30.11,NE,40,2.0,3.0,80,0.00,,---,0.00,VWS V14.01,2013-09-06 13:38:00,
2013-09-06 09:40:00,69.3,65.3,30.11,ENE,68,0.0,1.0,87,0.00,,---,0.00,VWS V14.01,2013-09-06 13:40:00,
2013-09-06 09:43:00,72.5,66.0,30.11,NE,43,0.0,6.0,80,0.00,,---,0.00,VWS V14.01,2013-09-06 13:43:00,
2013-09-06 09:45:00,69.6,64.9,30.11,ENE,60,0.0,1.0,85,0.00,,---,0.00,VWS V14.01,2013-09-06 13:45:00,
2013-09-06 09:48:00,72.8,65.9,30.11,NE,38,4.0,5.0,79,0.00,,---,0.00,VWS V14.01,2013-09-06 13:48:00,
2013-09-06 09:50:00,69.9,65.5,30.11,ESE,102,0.0,2.0,86,0.00,,---,0.00,VWS V14.01,2013-09-06 13:50:00,
2013-09-06 09:53:00,72.9,66.0,30.11,NE,41,1.0,5.0,79,0.00,,---,0.00,VWS V14.01,2013-09-06 13:53:00,
2013-09-06 09:55:00,70.1,64.4,30.11,NE,54,1.0,2.0,82,0.00,,---,0.00,VWS V14.01,2013-09-06 13:55:00,
2013-09-06 09:58:00,73.2,65.9,30.11,North,349,3.0,6.0,78,0.00,,---,0.00,VWS V14.01,2013-09-06 13:58:00,
2013-09-06 10:00:00,70.2,64.1,30.11,East,82,0.0,3.0,81,0.00,,---,0.00,VWS V14.01,2013-09-06 14:00:00,
2013-09-06 10:03:00,73.2,65.9,30.12,NE,47,1.0,7.0,78,0.00,,---,0.00,VWS V14.01,2013-09-06 14:03:00,
2013-09-06 10:05:00,70.7,64.6,30.11,NNE,29,2.0,2.0,81,0.00,,---,0.00,VWS V14.01,2013-09-06 14:05:00,
2013-09-06 10:08:00,73.5,66.2,30.12,NNE,32,3.0,7.0,78,0.00,,---,0.00,VWS V14.01,2013-09-06 14:08:00,
2013-09-06 10:10:00,71.0,64.9,30.11,ENE,73,1.0,2.0,81,0.00,,---,0.00,VWS V14.01,2013-09-06 14:10:00,
2013-09-06 10:13:00,73.6,65.9,30.12,NE,45,3.0,5.0,77,0.00,,---,0.00,VWS V14.01,2013-09-06 14:13:00,
2013-09-06 10:15:00,71.1,65.0,30.12,NNE,32,5.0,5.0,81,0.00,,---,0.00,VWS V14.01,2013-09-06 14:15:00,
2013-09-06 10:18:00,73.8,66.5,30.12,NE,50,3.0,5.0,78,0.00,,---,0.00,VWS V14.01,2013-09-06 14:18:00,
2013-09-06 10:20:00,71.1,65.0,30.12,NE,40,2.0,5.0,81,0.00,,---,0.00,VWS V14.01,2013-09-06 14:20:00,
2013-09-06 10:23:00,74.3,67.0,30.12,ENE,62,0.0,6.0,78,0.00,,---,0.00,VWS V14.01,2013-09-06 14:23:00,
2013-09-06 10:25:00,71.3,65.2,30.12,NE,41,2.0,4.0,81,0.00,,---,0.00,VWS V14.01,2013-09-06 14:25:00,
2013-09-06 10:28:00,75.2,66.7,30.12,NE,39,4.0,5.0,75,0.00,,---,0.00,VWS V14.01,2013-09-06 14:28:00,
2013-09-06 10:30:00,71.5,65.4,30.12,ESE,117,2.0,4.0,81,0.00,,---,0.00,VWS V14.01,2013-09-06 14:30:00,
2013-09-06 10:33:00,75.2,66.3,30.11,SSE,162,0.0,4.0,74,0.00,,---,0.00,VWS V14.01,2013-09-06 14:33:00,
2013-09-06 10:35:00,71.9,65.8,30.11,NE,41,1.0,4.0,81,0.00,,---,0.00,VWS V14.01,2013-09-06 14:35:00,
2013-09-06 10:38:00,75.9,68.2,30.12,NE,56,0.0,4.0,77,0.00,,---,0.00,VWS V14.01,2013-09-06 14:38:00,
2013-09-06 10:40:00,72.4,65.9,30.11,ENE,62,1.0,5.0,80,0.00,,---,0.00,VWS V14.01,2013-09-06 14:40:00,
2013-09-06 10:43:00,76.0,66.7,30.12,ENE,78,5.0,9.0,73,0.00,,---,0.00,VWS V14.01,2013-09-06 14:43:00,
2013-09-06 10:45:00,72.6,66.1,30.11,WNW,302,1.0,6.0,80,0.00,,---,0.00,VWS V14.01,2013-09-06 14:45:00,
2013-09-06 10:48:00,75.8,66.9,30.12,NE,38,1.0,8.0,74,0.00,,---,0.00,VWS V14.01,2013-09-06 14:48:00,
2013-09-06 10:50:00,72.8,65.6,30.11,NE,53,2.0,5.0,78,0.00,,---,0.00,VWS V14.01,2013-09-06 14:50:00,
2013-09-06 10:53:00,76.5,67.6,30.13,ESE,108,4.0,4.0,74,0.00,,---,0.00,VWS V14.01,2013-09-06 14:53:00,
2013-09-06 10:55:00,73.0,66.1,30.11,NE,53,1.0,5.0,79,0.00,,---,0.00,VWS V14.01,2013-09-06 14:55:00,
2013-09-06 10:58:00,77.1,66.6,30.13,NE,36,4.0,6.0,70,0.00,,---,0.00,VWS V14.01,2013-09-06 14:58:00,
2013-09-06 11:00:00,73.2,65.9,30.11,SE,131,1.0,6.0,78,0.00,,---,0.00,VWS V14.01,2013-09-06 15:00:00,
2013-09-06 11:03:00,76.3,67.0,30.13,ESE,105,1.0,7.0,73,0.00,,---,0.00,VWS V14.01,2013-09-06 15:03:00,
2013-09-06 11:05:00,73.2,65.9,30.11,NE,39,3.0,7.0,78,0.00,,---,0.00,VWS V14.01,2013-09-06 15:05:00,
2013-09-06 11:08:00,77.0,66.9,30.13,NNE,25,0.0,3.0,71,0.00,,---,0.00,VWS V14.01,2013-09-06 15:08:00,
2013-09-06 11:10:00,73.5,66.2,30.12,NE,48,3.0,7.0,78,0.00,,---,0.00,VWS V14.01,2013-09-06 15:10:00,
2013-09-06 11:13:00,77.8,67.2,30.13,ESE,111,1.0,3.0,70,0.00,,---,0.00,VWS V14.01,2013-09-06 15:13:00,
2013-09-06 11:15:00,73.6,65.9,30.12,NE,51,4.0,5.0,77,0.00,,---,0.00,VWS V14.01,2013-09-06 15:15:00,
2013-09-06 11:18:00,77.9,67.3,30.13,ENE,71,2.0,3.0,70,0.00,,---,0.00,VWS V14.01,2013-09-06 15:18:00,
2013-09-06 11:20:00,73.9,66.2,30.12,NE,51,1.0,5.0,77,0.00,,---,0.00,VWS V14.01,2013-09-06 15:20:00,
2013-09-06 11:23:00,77.9,67.8,30.13,West,279,0.0,4.0,71,0.00,,---,0.00,VWS V14.01,2013-09-06 15:23:00,
2013-09-06 11:25:00,74.5,67.2,30.12,ENE,60,0.0,6.0,78,0.00,,---,0.00,VWS V14.01,2013-09-06 15:25:00,
2013-09-06 11:28:00,78.6,67.2,30.12,NNE,33,0.0,3.0,68,0.00,,---,0.00,VWS V14.01,2013-09-06 15:28:00,
2013-09-06 11:30:00,75.1,66.6,30.12,NNW,346,1.0,5.0,75,0.00,,---,0.00,VWS V14.01,2013-09-06 15:30:00,
2013-09-06 11:33:00,78.6,67.2,30.12,East,91,1.0,5.0,68,0.00,,---,0.00,VWS V14.01,2013-09-06 15:33:00,
2013-09-06 11:35:00,75.3,66.4,30.12,NE,34,2.0,4.0,74,0.00,,---,0.00,VWS V14.01,2013-09-06 15:35:00,
2013-09-06 11:38:00,78.2,67.2,30.12,ENE,58,3.0,6.0,69,0.00,,---,0.00,VWS V14.01,2013-09-06 15:38:00,
2013-09-06 11:40:00,76.0,67.1,30.12,ESE,119,4.0,10.0,74,0.00,,---,0.00,VWS V14.01,2013-09-06 15:40:00,
2013-09-06 11:43:00,77.8,66.8,30.12,ESE,111,1.0,7.0,69,0.00,,---,0.00,VWS V14.01,2013-09-06 15:43:00,
2013-09-06 11:45:00,75.9,67.0,30.12,ENE,66,8.0,9.0,74,0.00,,---,0.00,VWS V14.01,2013-09-06 15:45:00,
2013-09-06 11:48:00,78.1,67.1,30.12,East,101,2.0,5.0,69,0.00,,---,0.00,VWS V14.01,2013-09-06 15:48:00,
2013-09-06 11:50:00,75.9,67.0,30.12,NE,55,2.0,8.0,74,0.00,,---,0.00,VWS V14.01,2013-09-06 15:50:00,
2013-09-06 11:53:00,78.5,67.5,30.12,NE,44,3.0,6.0,69,0.00,,---,0.00,VWS V14.01,2013-09-06 15:53:00,
2013-09-06 11:55:00,76.8,67.9,30.13,NE,55,1.0,4.0,74,0.00,,---,0.00,VWS V14.01,2013-09-06 15:55:00,
2013-09-06 11:58:00,79.0,68.0,30.12,NW,326,0.0,3.0,69,0.00,,---,0.00,VWS V14.01,2013-09-06 15:58:00,
2013-09-06 12:00:00,76.9,66.0,30.13,East,89,1.0,6.0,69,0.00,,---,0.00,VWS V14.01,2013-09-06 16:00:00,
2013-09-06 12:03:00,79.1,67.2,30.12,ENE,70,2.0,4.0,67,0.00,,---,0.00,VWS V14.01,2013-09-06 16:03:00,
2013-09-06 12:05:00,76.4,66.7,30.13,NE,51,1.0,7.0,72,0.00,,---,0.00,VWS V14.01,2013-09-06 16:05:00,
2013-09-06 12:08:00,79.2,68.2,30.12,WSW,257,1.0,3.0,69,0.00,,---,0.00,VWS V14.01,2013-09-06 16:08:00,
2013-09-06 12:10:00,77.2,67.5,30.13,ENE,60,1.0,3.0,72,0.00,,---,0.00,VWS V14.01,2013-09-06 16:10:00,
2013-09-06 12:13:00,79.9,68.0,30.12,East,94,1.0,6.0,67,0.00,,---,0.00,VWS V14.01,2013-09-06 16:13:00,
2013-09-06 12:15:00,77.9,67.8,30.13,East,85,2.0,3.0,71,0.00,,---,0.00,VWS V14.01,2013-09-06 16:15:00,
2013-09-06 12:18:00,79.8,68.3,30.12,ESE,112,0.0,4.0,68,0.00,,---,0.00,VWS V14.01,2013-09-06 16:18:00,
2013-09-06 12:20:00,77.9,67.3,30.13,NNE,30,1.0,3.0,70,0.00,,---,0.00,VWS V14.01,2013-09-06 16:20:00,
2013-09-06 12:23:00,80.5,68.5,30.11,ESE,121,1.0,5.0,67,0.00,,---,0.00,VWS V14.01,2013-09-06 16:23:00,
2013-09-06 12:25:00,78.0,67.4,30.13,NW,321,0.0,4.0,70,0.00,,---,0.00,VWS V14.01,2013-09-06 16:25:00,
2013-09-06 12:28:00,81.6,69.6,30.11,NE,37,0.0,3.0,67,0.00,,---,0.00,VWS V14.01,2013-09-06 16:28:00,
2013-09-06 12:30:00,78.7,67.7,30.12,ENE,75,2.0,3.0,69,0.00,,---,0.00,VWS V14.01,2013-09-06 16:30:00,
2013-09-06 12:33:00,82.2,67.9,30.11,NE,43,3.0,4.0,62,0.00,,---,0.00,VWS V14.01,2013-09-06 16:33:00,
2013-09-06 12:35:00,78.6,67.2,30.12,NE,38,4.0,5.0,68,0.00,,---,0.00,VWS V14.01,2013-09-06 16:35:00,
2013-09-06 12:38:00,81.7,67.4,30.11,NE,39,3.0,4.0,62,0.00,,---,0.00,VWS V14.01,2013-09-06 16:38:00,
2013-09-06 12:40:00,78.1,66.3,30.12,NE,56,3.0,6.0,67,0.00,,---,0.00,VWS V14.01,2013-09-06 16:40:00,
2013-09-06 12:43:00,81.4,67.1,30.11,North,353,0.0,3.0,62,0.00,,---,0.00,VWS V14.01,2013-09-06 16:43:00,
2013-09-06 12:45:00,77.8,67.2,30.12,WSW,246,0.0,7.0,70,0.00,,---,0.00,VWS V14.01,2013-09-06 16:45:00,
2013-09-06 12:48:00,81.7,67.4,30.11,West,274,1.0,3.0,62,0.00,,---,0.00,VWS V14.01,2013-09-06 16:48:00,
2013-09-06 12:50:00,78.2,67.2,30.12,NE,49,5.0,5.0,69,0.00,,---,0.00,VWS V14.01,2013-09-06 16:50:00,
2013-09-06 12:54:00,82.4,67.6,30.11,South,172,0.0,2.0,61,0.00,,---,0.00,VWS V14.01,2013-09-06 16:54:00,
2013-09-06 12:55:00,78.6,67.2,30.12,NE,42,1.0,6.0,68,0.00,,---,0.00,VWS V14.01,2013-09-06 16:55:00,
2013-09-06 12:59:00,82.7,67.4,30.10,NE,44,0.0,4.0,60,0.00,,---,0.00,VWS V14.01,2013-09-06 16:59:00,
2013-09-06 13:00:00,79.1,67.6,30.12,East,101,3.0,3.0,68,0.00,,---,0.00,VWS V14.01,2013-09-06 17:00:00,
2013-09-06 13:04:00,82.6,68.7,30.10,NE,41,0.0,3.0,63,0.00,,---,0.00,VWS V14.01,2013-09-06 17:04:00,
2013-09-06 13:05:00,79.2,66.9,30.12,NE,43,2.0,4.0,66,0.00,,---,0.00,VWS V14.01,2013-09-06 17:05:00,
2013-09-06 13:09:00,83.0,67.7,30.10,West,268,2.0,4.0,60,0.00,,---,0.00,VWS V14.01,2013-09-06 17:09:00,
2013-09-06 13:10:00,79.4,69.2,30.12,NW,314,1.0,3.0,71,0.00,,---,0.00,VWS V14.01,2013-09-06 17:10:00,
2013-09-06 13:14:00,83.2,68.8,30.10,ESE,109,0.0,2.0,62,0.00,,---,0.00,VWS V14.01,2013-09-06 17:14:00,
2013-09-06 13:15:00,79.9,68.0,30.12,NE,36,2.0,6.0,67,0.00,,---,0.00,VWS V14.01,2013-09-06 17:15:00,
2013-09-06 13:19:00,84.0,68.1,30.10,West,278,2.0,3.0,59,0.00,,---,0.00,VWS V14.01,2013-09-06 17:19:00,
2013-09-06 13:20:00,79.8,69.2,30.12,NE,45,2.0,4.0,70,0.00,,---,0.00,VWS V14.01,2013-09-06 17:20:00,
2013-09-06 13:24:00,83.6,69.2,30.10,ENE,57,3.0,3.0,62,0.00,,---,0.00,VWS V14.01,2013-09-06 17:24:00,
2013-09-06 13:25:00,80.6,68.6,30.11,North,9,1.0,5.0,67,0.00,,---,0.00,VWS V14.01,2013-09-06 17:25:00,
2013-09-06 13:29:00,83.3,68.9,30.09,ESE,106,2.0,5.0,62,0.00,,---,0.00,VWS V14.01,2013-09-06 17:29:00,
2013-09-06 13:30:00,81.9,69.0,30.11,East,98,0.0,3.0,65,0.00,,---,0.00,VWS V14.01,2013-09-06 17:30:00,
2013-09-06 13:34:00,84.2,68.3,30.09,ESE,120,2.0,3.0,59,0.00,,---,0.00,VWS V14.01,2013-09-06 17:34:00,
2013-09-06 13:35:00,81.9,67.6,30.11,ENE,60,1.0,4.0,62,0.00,,---,0.00,VWS V14.01,2013-09-06 17:35:00,
2013-09-06 13:39:00,84.6,67.7,30.09,South,173,2.0,4.0,57,0.00,,---,0.00,VWS V14.01,2013-09-06 17:39:00,
2013-09-06 13:40:00,81.5,66.8,30.11,SE,125,0.0,4.0,61,0.00,,---,0.00,VWS V14.01,2013-09-06 17:40:00,
2013-09-06 13:44:00,84.2,67.8,30.09,NW,309,0.0,4.0,58,0.00,,---,0.00,VWS V14.01,2013-09-06 17:44:00,
2013-09-06 13:45:00,81.5,67.2,30.11,SW,234,1.0,3.0,62,0.00,,---,0.00,VWS V14.01,2013-09-06 17:45:00,
2013-09-06 13:49:00,83.6,67.8,30.09,NE,46,2.0,3.0,59,0.00,,---,0.00,VWS V14.01,2013-09-06 17:49:00,
2013-09-06 13:50:00,81.8,68.0,30.11,West,261,2.0,3.0,63,0.00,,---,0.00,VWS V14.01,2013-09-06 17:50:00,
2013-09-06 13:54:00,84.0,68.6,30.09,SW,219,3.0,3.0,60,0.00,,---,0.00,VWS V14.01,2013-09-06 17:54:00,
2013-09-06 13:55:00,82.7,68.8,30.11,NE,40,1.0,2.0,63,0.00,,---,0.00,VWS V14.01,2013-09-06 17:55:00,
2013-09-06 13:59:00,85.7,69.2,30.09,WNW,295,2.0,3.0,58,0.00,,---,0.00,VWS V14.01,2013-09-06 17:59:00,
2013-09-06 14:00:00,82.6,67.8,30.10,WNW,296,3.0,4.0,61,0.00,,---,0.00,VWS V14.01,2013-09-06 18:00:00,
2013-09-06 14:04:00,85.7,67.7,30.08,ENE,66,5.0,7.0,55,0.00,,---,0.00,VWS V14.01,2013-09-06 18:04:00,
2013-09-06 14:05:00,82.8,68.5,30.10,NE,41,1.0,3.0,62,0.00,,---,0.00,VWS V14.01,2013-09-06 18:05:00,
2013-09-06 14:09:00,85.0,69.1,30.08,SSE,164,0.0,5.0,59,0.00,,---,0.00,VWS V14.01,2013-09-06 18:09:00,
2013-09-06 14:10:00,82.9,67.6,30.10,NW,325,2.0,4.0,60,0.00,,---,0.00,VWS V14.01,2013-09-06 18:10:00,
2013-09-06 14:14:00,85.4,68.4,30.08,East,82,3.0,4.0,57,0.00,,---,0.00,VWS V14.01,2013-09-06 18:14:00,
2013-09-06 14:15:00,83.4,69.5,30.10,SE,125,0.0,2.0,63,0.00,,---,0.00,VWS V14.01,2013-09-06 18:15:00,
2013-09-06 14:19:00,85.5,67.5,30.08,West,272,2.0,3.0,55,0.00,,---,0.00,VWS V14.01,2013-09-06 18:19:00,
2013-09-06 14:20:00,83.8,68.0,30.10,West,273,1.0,3.0,59,0.00,,---,0.00,VWS V14.01,2013-09-06 18:20:00,
2013-09-06 14:24:00,86.1,69.6,30.08,East,97,3.0,3.0,58,0.00,,---,0.00,VWS V14.01,2013-09-06 18:24:00,
2013-09-06 14:25:00,83.6,68.3,30.10,ENE,58,3.0,3.0,60,0.00,,---,0.00,VWS V14.01,2013-09-06 18:25:00,
2013-09-06 14:29:00,85.8,68.3,30.08,NE,41,0.0,3.0,56,0.00,,---,0.00,VWS V14.01,2013-09-06 18:29:00,
2013-09-06 14:30:00,83.3,68.9,30.09,ESE,112,0.0,5.0,62,0.00,,---,0.00,VWS V14.01,2013-09-06 18:30:00,
2013-09-06 14:34:00,86.4,68.3,30.08,East,101,2.0,2.0,55,0.00,,---,0.00,VWS V14.01,2013-09-06 18:34:00,
2013-09-06 14:35:00,84.3,67.9,30.09,NE,54,1.0,3.0,58,0.00,,---,0.00,VWS V14.01,2013-09-06 18:35:00,
2013-09-06 14:39:00,86.7,68.6,30.07,West,266,0.0,2.0,55,0.00,,---,0.00,VWS V14.01,2013-09-06 18:39:00,
2013-09-06 14:40:00,84.5,67.6,30.09,SSW,205,4.0,5.0,57,0.00,,---,0.00,VWS V14.01,2013-09-06 18:40:00,
2013-09-06 14:44:00,87.3,68.6,30.07,West,264,2.0,3.0,54,0.00,,---,0.00,VWS V14.01,2013-09-06 18:44:00,
2013-09-06 14:45:00,84.2,69.3,30.09,ENE,60,3.0,4.0,61,0.00,,---,0.00,VWS V14.01,2013-09-06 18:45:00,
2013-09-06 14:49:00,86.9,67.7,30.07,WNW,290,0.0,4.0,53,0.00,,---,0.00,VWS V14.01,2013-09-06 18:49:00,
2013-09-06 14:50:00,83.6,68.7,30.09,NE,46,0.0,3.0,61,0.00,,---,0.00,VWS V14.01,2013-09-06 18:50:00,
2013-09-06 14:54:00,87.0,67.3,30.07,NE,44,0.0,3.0,52,0.00,,---,0.00,VWS V14.01,2013-09-06 18:54:00,
2013-09-06 14:55:00,84.2,68.3,30.09,SW,232,0.0,3.0,59,0.00,,---,0.00,VWS V14.01,2013-09-06 18:55:00,
2013-09-06 14:59:00,86.8,68.7,30.06,ENE,65,3.0,4.0,55,0.00,,---,0.00,VWS V14.01,2013-09-06 18:59:00,
2013-09-06 15:00:00,86.0,69.0,30.09,SW,232,1.0,3.0,57,0.00,,---,0.00,VWS V14.01,2013-09-06 19:00:00,
2013-09-06 15:04:00,86.6,67.4,30.06,ENE,77,4.0,5.0,53,0.00,,---,0.00,VWS V14.01,2013-09-06 19:04:00,
2013-09-06 15:05:00,85.4,67.9,30.08,East,89,2.0,7.0,56,0.00,,---,0.00,VWS V14.01,2013-09-06 19:05:00,
2013-09-06 15:09:00,85.2,68.3,30.06,East,91,4.0,5.0,57,0.00,,---,0.00,VWS V14.01,2013-09-06 19:09:00,
2013-09-06 15:10:00,85.1,68.7,30.08,East,86,0.0,5.0,58,0.00,,---,0.00,VWS V14.01,2013-09-06 19:10:00,
2013-09-06 15:14:00,85.0,68.6,30.06,ESE,113,3.0,4.0,58,0.00,,---,0.00,VWS V14.01,2013-09-06 19:14:00,
2013-09-06 15:15:00,85.2,68.3,30.08,ENE,77,3.0,4.0,57,0.00,,---,0.00,VWS V14.01,2013-09-06 19:15:00,
2013-09-06 15:19:00,85.9,67.3,30.06,WSW,252,2.0,3.0,54,0.00,,---,0.00,VWS V14.01,2013-09-06 19:19:00,
2013-09-06 15:20:00,85.4,68.4,30.08,SW,221,3.0,3.0,57,0.00,,---,0.00,VWS V14.01,2013-09-06 19:20:00,
2013-09-06 15:24:00,86.2,68.2,30.05,WNW,292,0.0,3.0,55,0.00,,---,0.00,VWS V14.01,2013-09-06 19:24:00,
2013-09-06 15:25:00,86.2,69.2,30.08,ESE,122,2.0,4.0,57,0.00,,---,0.00,VWS V14.01,2013-09-06 19:25:00,
2013-09-06 15:29:00,87.5,68.3,30.05,SSE,164,0.0,1.0,53,0.00,,---,0.00,VWS V14.01,2013-09-06 19:29:00,
2013-09-06 15:30:00,85.8,67.8,30.08,NNE,25,0.0,3.0,55,0.00,,---,0.00,VWS V14.01,2013-09-06 19:30:00,
2013-09-06 15:34:00,87.2,67.4,30.05,WSW,258,2.0,5.0,52,0.00,,---,0.00,VWS V14.01,2013-09-06 19:34:00,
2013-09-06 15:35:00,86.4,67.8,30.08,ESE,119,0.0,2.0,54,0.00,,---,0.00,VWS V14.01,2013-09-06 19:35:00,
2013-09-06 15:39:00,86.3,66.6,30.05,ENE,64,3.0,5.0,52,0.00,,---,0.00,VWS V14.01,2013-09-06 19:39:00,
2013-09-06 15:40:00,86.8,68.7,30.07,West,266,0.0,2.0,55,0.00,,---,0.00,VWS V14.01,2013-09-06 19:40:00,
2013-09-06 15:44:00,85.8,68.3,30.05,NE,56,1.0,4.0,56,0.00,,---,0.00,VWS V14.01,2013-09-06 19:44:00,
2013-09-06 15:45:00,87.2,68.0,30.07,West,264,2.0,3.0,53,0.00,,---,0.00,VWS V14.01,2013-09-06 19:45:00,
2013-09-06 15:49:00,86.8,69.8,30.04,North,360,1.0,3.0,57,0.00,,---,0.00,VWS V14.01,2013-09-06 19:49:00,
2013-09-06 15:50:00,87.0,67.8,30.07,WNW,291,0.0,4.0,53,0.00,,---,0.00,VWS V14.01,2013-09-06 19:50:00,
2013-09-06 15:54:00,87.0,66.1,30.05,NE,44,1.0,2.0,50,0.00,,---,0.00,VWS V14.01,2013-09-06 19:54:00,
2013-09-06 15:55:00,86.9,67.2,30.07,NE,44,1.0,3.0,52,0.00,,---,0.00,VWS V14.01,2013-09-06 19:55:00,
2013-09-06 15:59:00,86.3,66.6,30.05,WSW,245,2.0,4.0,52,0.00,,---,0.00,VWS V14.01,2013-09-06 19:59:00,
2013-09-06 16:00:00,86.6,67.4,30.06,ENE,75,0.0,4.0,53,0.00,,---,0.00,VWS V14.01,2013-09-06 20:00:00,
2013-09-06 16:04:00,87.2,68.0,30.04,SE,133,1.0,1.0,53,0.00,,---,0.00,VWS V14.01,2013-09-06 20:04:00,
2013-09-06 16:05:00,86.4,68.3,30.06,ENE,68,2.0,5.0,55,0.00,,---,0.00,VWS V14.01,2013-09-06 20:05:00,
2013-09-06 16:09:00,86.6,70.1,30.04,ESE,122,3.0,5.0,58,0.00,,---,0.00,VWS V14.01,2013-09-06 20:09:00,
2013-09-06 16:10:00,85.1,68.2,30.06,SE,133,3.0,5.0,57,0.00,,---,0.00,VWS V14.01,2013-09-06 20:10:00,
2013-09-06 16:14:00,86.8,67.6,30.04,North,358,0.0,3.0,53,0.00,,---,0.00,VWS V14.01,2013-09-06 20:14:00,
2013-09-06 16:15:00,85.1,68.2,30.06,South,186,2.0,4.0,57,0.00,,---,0.00,VWS V14.01,2013-09-06 20:15:00,
2013-09-06 16:19:00,85.8,67.2,30.04,ENE,60,1.0,3.0,54,0.00,,---,0.00,VWS V14.01,2013-09-06 20:19:00,
2013-09-06 16:20:00,86.1,67.5,30.06,WSW,248,2.0,3.0,54,0.00,,---,0.00,VWS V14.01,2013-09-06 20:20:00,
2013-09-06 16:24:00,84.7,66.2,30.04,ENE,73,4.0,4.0,54,0.00,,---,0.00,VWS V14.01,2013-09-06 20:24:00,
2013-09-06 16:25:00,86.2,67.6,30.05,WSW,248,1.0,3.0,54,0.00,,---,0.00,VWS V14.01,2013-09-06 20:25:00,
2013-09-06 16:29:00,84.6,66.7,30.03,North,359,0.0,1.0,55,0.00,,---,0.00,VWS V14.01,2013-09-06 20:29:00,
2013-09-06 16:30:00,87.7,68.5,30.05,WSW,256,2.0,2.0,53,0.00,,---,0.00,VWS V14.01,2013-09-06 20:30:00,
2013-09-06 16:34:00,85.8,67.8,30.03,ESE,110,4.0,4.0,55,0.00,,---,0.00,VWS V14.01,2013-09-06 20:34:00,
2013-09-06 16:35:00,87.1,67.4,30.05,WSW,251,0.0,5.0,52,0.00,,---,0.00,VWS V14.01,2013-09-06 20:35:00,
2013-09-06 16:39:00,85.4,67.9,30.03,East,86,3.0,3.0,56,0.00,,---,0.00,VWS V14.01,2013-09-06 20:39:00,
2013-09-06 16:40:00,86.8,68.7,30.07,West,266,0.0,2.0,55,0.00,,---,0.00,VWS V14.01,2013-09-06 20:40:00,
2013-09-06 16:44:00,84.8,67.4,30.03,ENE,73,3.0,5.0,56,0.00,,---,0.00,VWS V14.01,2013-09-06 20:44:00,
2013-09-06 16:45:00,86.0,69.0,30.05,SE,145,2.0,4.0,57,0.00,,---,0.00,VWS V14.01,2013-09-06 20:45:00,
2013-09-06 16:49:00,84.7,68.8,30.03,ESE,110,1.0,4.0,59,0.00,,---,0.00,VWS V14.01,2013-09-06 20:49:00,
2013-09-06 16:50:00,87.0,68.9,30.04,NNW,331,1.0,3.0,55,0.00,,---,0.00,VWS V14.01,2013-09-06 20:50:00,
2013-09-06 16:54:00,85.1,67.7,30.03,ENE,73,1.0,4.0,56,0.00,,---,0.00,VWS V14.01,2013-09-06 20:54:00,
2013-09-06 16:55:00,87.0,66.7,30.05,NE,56,0.0,2.0,51,0.00,,---,0.00,VWS V14.01,2013-09-06 20:55:00,
2013-09-06 16:59:00,85.2,68.3,30.03,East,97,0.0,4.0,57,0.00,,---,0.00,VWS V14.01,2013-09-06 20:59:00,
2013-09-06 17:00:00,86.3,66.1,30.05,SW,219,0.0,4.0,51,0.00,,---,0.00,VWS V14.01,2013-09-06 21:00:00,
2013-09-06 17:04:00,85.0,67.6,30.03,NE,51,1.0,4.0,56,0.00,,---,0.00,VWS V14.01,2013-09-06 21:04:00,
2013-09-06 17:05:00,87.3,68.1,30.04,NE,56,4.0,4.0,53,0.00,,---,0.00,VWS V14.01,2013-09-06 21:05:00,
2013-09-06 17:09:00,85.4,66.9,30.02,WNW,295,0.0,2.0,54,0.00,,---,0.00,VWS V14.01,2013-09-06 21:09:00,
2013-09-06 17:10:00,86.6,68.5,30.04,SE,126,0.0,5.0,55,0.00,,---,0.00,VWS V14.01,2013-09-06 21:10:00,
2013-09-06 17:14:00,86.4,68.9,30.02,ENE,57,0.0,1.0,56,0.00,,---,0.00,VWS V14.01,2013-09-06 21:14:00,
2013-09-06 17:15:00,86.8,68.2,30.04,NE,44,2.0,3.0,54,0.00,,---,0.00,VWS V14.01,2013-09-06 21:15:00,
2013-09-06 17:19:00,86.0,68.0,30.03,NW,319,2.0,3.0,55,0.00,,---,0.00,VWS V14.01,2013-09-06 21:19:00,
2013-09-06 17:20:00,85.6,67.1,30.04,NNE,32,0.0,3.0,54,0.00,,---,0.00,VWS V14.01,2013-09-06 21:20:00,
2013-09-06 17:24:00,85.6,67.1,30.02,North,2,0.0,4.0,54,0.00,,---,0.00,VWS V14.01,2013-09-06 21:24:00,
2013-09-06 17:25:00,84.5,66.1,30.04,East,92,1.0,5.0,54,0.00,,---,0.00,VWS V14.01,2013-09-06 21:25:00,
2013-09-06 17:29:00,86.0,67.4,30.02,SSE,148,1.0,3.0,54,0.00,,---,0.00,VWS V14.01,2013-09-06 21:29:00,
2013-09-06 17:30:00,84.8,66.8,30.03,WNW,282,0.0,1.0,55,0.00,,---,0.00,VWS V14.01,2013-09-06 21:30:00,
2013-09-06 17:34:00,85.6,66.5,30.02,ENE,75,2.0,3.0,53,0.00,,---,0.00,VWS V14.01,2013-09-06 21:34:00,
2013-09-06 17:35:00,85.8,67.8,30.03,East,89,1.0,4.0,55,0.00,,---,0.00,VWS V14.01,2013-09-06 21:35:00,
2013-09-06 17:39:00,85.0,67.0,30.02,North,353,0.0,4.0,55,0.00,,---,0.00,VWS V14.01,2013-09-06 21:39:00,
2013-09-06 17:40:00,85.3,67.8,30.03,ESE,120,1.0,3.0,56,0.00,,---,0.00,VWS V14.01,2013-09-06 21:40:00,
2013-09-06 17:44:00,85.0,66.5,30.02,NE,52,1.0,3.0,54,0.00,,---,0.00,VWS V14.01,2013-09-06 21:44:00,
2013-09-06 17:45:00,84.7,67.8,30.03,East,89,2.0,5.0,57,0.00,,---,0.00,VWS V14.01,2013-09-06 21:45:00,
2013-09-06 17:49:00,85.0,67.0,30.02,SE,133,1.0,2.0,55,0.00,,---,0.00,VWS V14.01,2013-09-06 21:49:00,
2013-09-06 17:50:00,84.7,67.8,30.03,NE,55,1.0,4.0,57,0.00,,---,0.00,VWS V14.01,2013-09-06 21:50:00,
2013-09-06 17:54:00,85.2,67.2,30.02,North,3,0.0,3.0,55,0.00,,---,0.00,VWS V14.01,2013-09-06 21:54:00,
2013-09-06 17:55:00,85.2,67.2,30.03,ESE,122,2.0,4.0,55,0.00,,---,0.00,VWS V14.01,2013-09-06 21:55:00,
2013-09-06 17:59:00,85.4,65.8,30.02,East,82,0.0,3.0,52,0.00,,---,0.00,VWS V14.01,2013-09-06 21:59:00,
2013-09-06 18:00:00,85.2,68.8,30.03,East,96,0.0,4.0,58,0.00,,---,0.00,VWS V14.01,2013-09-06 22:00:00,
2013-09-06 18:04:00,85.2,67.2,30.02,NE,42,0.0,2.0,55,0.00,,---,0.00,VWS V14.01,2013-09-06 22:04:00,
2013-09-06 18:05:00,85.0,68.1,30.03,North,360,2.0,4.0,57,0.00,,---,0.00,VWS V14.01,2013-09-06 22:05:00,
2013-09-06 18:09:00,86.0,67.4,30.02,North,350,2.0,2.0,54,0.00,,---,0.00,VWS V14.01,2013-09-06 22:09:00,
2013-09-06 18:10:00,85.6,67.1,30.02,NW,308,1.0,2.0,54,0.00,,---,0.00,VWS V14.01,2013-09-06 22:10:00,
2013-09-06 18:14:00,86.2,67.1,30.02,ESE,117,0.0,2.0,53,0.00,,---,0.00,VWS V14.01,2013-09-06 22:14:00,
2013-09-06 18:15:00,86.5,69.0,30.02,SSE,165,0.0,1.0,56,0.00,,---,0.00,VWS V14.01,2013-09-06 22:15:00,
2013-09-06 18:19:00,85.6,65.4,30.02,SE,140,0.0,1.0,51,0.00,,---,0.00,VWS V14.01,2013-09-06 22:19:00,
2013-09-06 18:20:00,86.0,67.4,30.03,NE,40,2.0,3.0,54,0.00,,---,0.00,VWS V14.01,2013-09-06 22:20:00,
2013-09-06 18:24:00,85.9,65.1,30.02,East,79,0.0,1.0,50,0.00,,---,0.00,VWS V14.01,2013-09-06 22:24:00,
2013-09-06 18:25:00,85.6,67.6,30.02,WNW,288,1.0,4.0,55,0.00,,---,0.00,VWS V14.01,2013-09-06 22:25:00,
2013-09-06 18:29:00,85.3,67.3,30.02,East,94,0.0,1.0,55,0.00,,---,0.00,VWS V14.01,2013-09-06 22:29:00,
2013-09-06 18:30:00,86.0,68.0,30.02,SE,137,0.0,3.0,55,0.00,,---,0.00,VWS V14.01,2013-09-06 22:30:00,
2013-09-06 18:34:00,85.4,66.9,30.02,East,91,0.0,1.0,54,0.00,,---,0.00,VWS V14.01,2013-09-06 22:34:00,
2013-09-06 18:35:00,85.5,67.5,30.02,SE,143,1.0,3.0,55,0.00,,---,0.00,VWS V14.01,2013-09-06 22:35:00,
2013-09-06 18:39:00,85.3,67.3,30.02,East,91,1.0,1.0,55,0.00,,---,0.00,VWS V14.01,2013-09-06 22:39:00,
2013-09-06 18:40:00,84.9,66.4,30.02,North,353,1.0,4.0,54,0.00,,---,0.00,VWS V14.01,2013-09-06 22:40:00,
2013-09-06 18:44:00,85.1,67.1,30.02,East,91,0.0,1.0,55,0.00,,---,0.00,VWS V14.01,2013-09-06 22:44:00,
2013-09-06 18:45:00,85.0,66.5,30.02,East,95,2.0,3.0,54,0.00,,---,0.00,VWS V14.01,2013-09-06 22:45:00,
2013-09-06 18:49:00,85.2,67.2,30.02,East,91,0.0,1.0,55,0.00,,---,0.00,VWS V14.01,2013-09-06 22:49:00,
2013-09-06 18:50:00,85.0,67.0,30.02,SE,132,0.0,2.0,55,0.00,,---,0.00,VWS V14.01,2013-09-06 22:50:00,
2013-09-06 18:54:00,85.5,67.0,30.02,East,91,0.0,1.0,54,0.00,,---,0.00,VWS V14.01,2013-09-06 22:54:00,
2013-09-06 18:55:00,85.2,67.2,30.02,WNW,296,1.0,3.0,55,0.00,,---,0.00,VWS V14.01,2013-09-06 22:55:00,
2013-09-06 18:59:00,84.7,66.2,30.02,East,91,0.0,1.0,54,0.00,,---,0.00,VWS V14.01,2013-09-06 22:59:00,
2013-09-06 19:00:00,85.3,66.2,30.02,East,82,1.0,3.0,53,0.00,,---,0.00,VWS V14.01,2013-09-06 23:00:00,
2013-09-06 19:04:00,85.0,67.0,30.02,East,91,0.0,0.0,55,0.00,,---,0.00,VWS V14.01,2013-09-06 23:04:00,
2013-09-06 19:05:00,85.3,67.3,30.02,NE,42,0.0,2.0,55,0.00,,---,0.00,VWS V14.01,2013-09-06 23:05:00,
2013-09-06 19:09:00,85.4,67.4,30.02,East,91,0.0,0.0,55,0.00,,---,0.00,VWS V14.01,2013-09-06 23:09:00,
2013-09-06 19:10:00,86.0,66.9,30.02,NE,49,0.0,3.0,53,0.00,,---,0.00,VWS V14.01,2013-09-06 23:10:00,
2013-09-06 19:14:00,85.7,68.2,30.01,East,91,0.0,0.0,56,0.00,,---,0.00,VWS V14.01,2013-09-06 23:14:00,
2013-09-06 19:15:00,86.1,66.4,30.02,ESE,117,0.0,2.0,52,0.00,,---,0.00,VWS V14.01,2013-09-06 23:15:00,
2013-09-06 19:19:00,84.0,67.1,30.01,East,91,0.0,0.0,57,0.00,,---,0.00,VWS V14.01,2013-09-06 23:19:00,
2013-09-06 19:20:00,85.7,65.5,30.02,SE,139,0.0,1.0,51,0.00,,---,0.00,VWS V14.01,2013-09-06 23:20:00,
2013-09-06 19:24:00,82.9,68.1,30.02,East,91,0.0,0.0,61,0.00,,---,0.00,VWS V14.01,2013-09-06 23:24:00,
2013-09-06 19:25:00,85.8,65.0,30.02,East,79,0.0,1.0,50,0.00,,---,0.00,VWS V14.01,2013-09-06 23:25:00,
2013-09-06 19:29:00,81.6,67.8,30.02,East,91,0.0,0.0,63,0.00,,---,0.00,VWS V14.01,2013-09-06 23:29:00,
2013-09-06 19:30:00,85.4,67.4,30.02,East,94,0.0,1.0,55,0.00,,---,0.00,VWS V14.01,2013-09-06 23:30:00,
2013-09-06 19:34:00,80.2,67.8,30.02,East,91,0.0,0.0,66,0.00,,---,0.00,VWS V14.01,2013-09-06 23:34:00,
2013-09-06 19:35:00,85.4,67.9,30.02,East,91,0.0,1.0,56,0.00,,---,0.00,VWS V14.01,2013-09-06 23:35:00,
2013-09-06 19:39:00,79.3,68.3,30.02,East,91,0.0,0.0,69,0.00,,---,0.00,VWS V14.01,2013-09-06 23:39:00,
2013-09-06 19:40:00,85.3,67.8,30.02,East,91,0.0,1.0,56,0.00,,---,0.00,VWS V14.01,2013-09-06 23:40:00,
2013-09-06 19:44:00,78.7,67.7,30.01,East,91,0.0,0.0,69,0.00,,---,0.00,VWS V14.01,2013-09-06 23:44:00,
2013-09-06 19:45:00,85.1,66.6,30.02,East,91,0.0,1.0,54,0.00,,---,0.00,VWS V14.01,2013-09-06 23:45:00,
2013-09-06 19:49:00,77.6,67.5,30.01,East,91,0.0,0.0,71,0.00,,---,0.00,VWS V14.01,2013-09-06 23:49:00,
2013-09-06 19:50:00,85.3,67.3,30.02,East,91,0.0,1.0,55,0.00,,---,0.00,VWS V14.01,2013-09-06 23:50:00,
2013-09-06 19:54:00,76.6,67.7,30.01,East,91,0.0,0.0,74,0.00,,---,0.00,VWS V14.01,2013-09-06 23:54:00,
2013-09-06 19:55:00,85.4,66.9,30.02,East,91,0.0,1.0,54,0.00,,---,0.00,VWS V14.01,2013-09-06 23:55:00,
2013-09-06 19:59:00,75.8,67.7,30.02,East,91,0.0,0.0,76,0.00,,---,0.00,VWS V14.01,2013-09-06 23:59:00,
2013-09-06 20:00:00,84.7,66.2,30.02,East,91,0.0,1.0,54,0.00,,---,0.00,VWS V14.01,2013-09-07 00:00:00,
2013-09-06 20:04:00,75.0,67.3,30.01,East,91,0.0,0.0,77,0.00,,---,0.00,VWS V14.01,2013-09-07 00:04:00,
2013-09-06 20:05:00,85.0,67.0,30.02,East,91,0.0,0.0,55,0.00,,---,0.00,VWS V14.01,2013-09-07 00:05:00,
2013-09-06 20:09:00,74.4,67.8,30.01,East,91,0.0,0.0,80,0.00,,---,0.00,VWS V14.01,2013-09-07 00:09:00,
2013-09-06 20:10:00,86.0,66.9,30.02,NE,49,0.0,3.0,53,0.00,,---,0.00,VWS V14.01,2013-09-07 00:10:00,
2013-09-06 20:14:00,73.5,67.7,30.01,East,91,0.0,0.0,82,0.00,,---,0.00,VWS V14.01,2013-09-07 00:14:00,
2013-09-06 20:15:00,85.6,67.6,30.01,East,91,0.0,0.0,55,0.00,,---,0.00,VWS V14.01,2013-09-07 00:15:00,
2013-09-06 20:19:00,72.8,67.3,30.01,East,91,0.0,0.0,83,0.00,,---,0.00,VWS V14.01,2013-09-07 00:19:00,
2013-09-06 20:20:00,83.8,67.5,30.01,East,91,0.0,0.0,58,0.00,,---,0.00,VWS V14.01,2013-09-07 00:20:00,
2013-09-06 20:24:00,72.2,67.4,30.01,East,91,0.0,0.0,85,0.00,,---,0.00,VWS V14.01,2013-09-07 00:24:00,
2013-09-06 20:25:00,82.8,68.5,30.02,East,91,0.0,0.0,62,0.00,,---,0.00,VWS V14.01,2013-09-07 00:25:00,
2013-09-06 20:29:00,71.7,67.3,30.01,East,91,0.0,0.0,86,0.00,,---,0.00,VWS V14.01,2013-09-07 00:29:00,
2013-09-06 20:30:00,81.5,67.7,30.02,East,91,0.0,0.0,63,0.00,,---,0.00,VWS V14.01,2013-09-07 00:30:00,
2013-09-06 20:34:00,71.2,67.1,30.01,East,91,0.0,0.0,87,0.00,,---,0.00,VWS V14.01,2013-09-07 00:34:00,
2013-09-06 20:35:00,80.1,67.7,30.02,East,91,0.0,0.0,66,0.00,,---,0.00,VWS V14.01,2013-09-07 00:35:00,
2013-09-06 20:39:00,70.8,67.1,30.02,East,91,0.0,0.0,88,0.00,,---,0.00,VWS V14.01,2013-09-07 00:39:00,
2013-09-06 20:40:00,79.2,68.2,30.02,East,91,0.0,0.0,69,0.00,,---,0.00,VWS V14.01,2013-09-07 00:40:00,
2013-09-06 20:44:00,70.2,66.5,30.02,East,91,0.0,0.0,88,0.00,,---,0.00,VWS V14.01,2013-09-07 00:44:00,
2013-09-06 20:45:00,78.7,67.7,30.01,East,91,0.0,0.0,69,0.00,,---,0.00,VWS V14.01,2013-09-07 00:45:00,
2013-09-06 20:49:00,70.0,66.9,30.02,East,91,0.0,0.0,90,0.00,,---,0.00,VWS V14.01,2013-09-07 00:49:00,
2013-09-06 20:50:00,77.6,67.5,30.01,East,91,0.0,0.0,71,0.00,,---,0.00,VWS V14.01,2013-09-07 00:50:00,
2013-09-06 20:54:00,69.7,66.3,30.02,East,91,0.0,0.0,89,0.00,,---,0.00,VWS V14.01,2013-09-07 00:54:00,
2013-09-06 20:55:00,76.6,67.7,30.01,East,91,0.0,0.0,74,0.00,,---,0.00,VWS V14.01,2013-09-07 00:55:00,
2013-09-06 20:59:00,69.4,66.7,30.02,East,91,0.0,0.0,91,0.00,,---,0.00,VWS V14.01,2013-09-07 00:59:00,
2013-09-06 21:00:00,75.7,67.6,30.02,East,91,0.0,0.0,76,0.00,,---,0.00,VWS V14.01,2013-09-07 01:00:00,
2013-09-06 21:04:00,69.1,66.4,30.02,East,91,0.0,0.0,91,0.00,,---,0.00,VWS V14.01,2013-09-07 01:04:00,
2013-09-06 21:05:00,74.9,67.2,30.01,East,91,0.0,0.0,77,0.00,,---,0.00,VWS V14.01,2013-09-07 01:05:00,
2013-09-06 21:09:00,68.8,66.4,30.02,East,91,0.0,0.0,92,0.00,,---,0.00,VWS V14.01,2013-09-07 01:09:00,
2013-09-06 21:10:00,74.3,67.7,30.01,East,91,0.0,0.0,80,0.00,,---,0.00,VWS V14.01,2013-09-07 01:10:00,
2013-09-06 21:14:00,68.7,66.3,30.03,East,91,0.0,0.0,92,0.00,,---,0.00,VWS V14.01,2013-09-07 01:14:00,
2013-09-06 21:15:00,73.5,67.7,30.01,East,91,0.0,0.0,82,0.00,,---,0.00,VWS V14.01,2013-09-07 01:15:00,
2013-09-06 21:19:00,68.5,66.1,30.03,East,91,0.0,0.0,92,0.00,,---,0.00,VWS V14.01,2013-09-07 01:19:00,
2013-09-06 21:20:00,72.8,67.3,30.01,East,91,0.0,0.0,83,0.00,,---,0.00,VWS V14.01,2013-09-07 01:20:00,
2013-09-06 21:24:00,68.3,65.9,30.03,East,91,0.0,0.0,92,0.00,,---,0.00,VWS V14.01,2013-09-07 01:24:00,
2013-09-06 21:25:00,72.2,67.4,30.01,East,91,0.0,0.0,85,0.00,,---,0.00,VWS V14.01,2013-09-07 01:25:00,
2013-09-06 21:29:00,68.1,66.0,30.03,East,91,0.0,0.0,93,0.00,,---,0.00,VWS V14.01,2013-09-07 01:29:00,
2013-09-06 21:30:00,71.6,67.2,30.01,East,91,0.0,0.0,86,0.00,,---,0.00,VWS V14.01,2013-09-07 01:30:00,
2013-09-06 21:34:00,67.8,65.4,30.03,East,91,0.0,0.0,92,0.00,,---,0.00,VWS V14.01,2013-09-07 01:34:00,
2013-09-06 21:35:00,71.2,67.1,30.01,East,91,0.0,0.0,87,0.00,,---,0.00,VWS V14.01,2013-09-07 01:35:00,
2013-09-06 21:39:00,67.5,65.1,30.04,East,91,0.0,0.0,92,0.00,,---,0.00,VWS V14.01,2013-09-07 01:39:00,
2013-09-06 21:40:00,70.8,67.1,30.02,East,91,0.0,0.0,88,0.00,,---,0.00,VWS V14.01,2013-09-07 01:40:00,
2013-09-06 21:44:00,67.3,65.5,30.04,East,91,0.0,0.0,94,0.00,,---,0.00,VWS V14.01,2013-09-07 01:44:00,
2013-09-06 21:45:00,70.2,66.5,30.02,East,91,0.0,0.0,88,0.00,,---,0.00,VWS V14.01,2013-09-07 01:45:00,
2013-09-06 21:49:00,67.1,65.3,30.04,East,91,0.0,0.0,94,0.00,,---,0.00,VWS V14.01,2013-09-07 01:49:00,
2013-09-06 21:50:00,69.9,66.8,30.02,East,91,0.0,0.0,90,0.00,,---,0.00,VWS V14.01,2013-09-07 01:50:00,
2013-09-06 21:54:00,66.9,65.4,30.04,East,91,0.0,0.0,95,0.00,,---,0.00,VWS V14.01,2013-09-07 01:54:00,
2013-09-06 21:55:00,69.7,66.3,30.02,East,91,0.0,0.0,89,0.00,,---,0.00,VWS V14.01,2013-09-07 01:55:00,
2013-09-06 21:59:00,66.8,65.3,30.04,East,91,0.0,0.0,95,0.00,,---,0.00,VWS V14.01,2013-09-07 01:59:00,
2013-09-06 22:00:00,69.4,66.7,30.02,East,91,0.0,0.0,91,0.00,,---,0.00,VWS V14.01,2013-09-07 02:00:00,
2013-09-06 22:04:00,66.6,65.4,30.04,East,91,0.0,0.0,96,0.00,,---,0.00,VWS V14.01,2013-09-07 02:04:00,
2013-09-06 22:05:00,69.1,66.4,30.02,East,91,0.0,0.0,91,0.00,,---,0.00,VWS V14.01,2013-09-07 02:05:00,
2013-09-06 22:09:00,66.5,65.0,30.04,East,91,0.0,0.0,95,0.00,,---,0.00,VWS V14.01,2013-09-07 02:09:00,
2013-09-06 22:10:00,68.8,66.4,30.02,East,91,0.0,0.0,92,0.00,,---,0.00,VWS V14.01,2013-09-07 02:10:00,
2013-09-06 22:14:00,66.3,64.8,30.04,East,91,0.0,0.0,95,0.00,,---,0.00,VWS V14.01,2013-09-07 02:14:00,
2013-09-06 22:15:00,68.7,66.3,30.03,East,91,0.0,0.0,92,0.00,,---,0.00,VWS V14.01,2013-09-07 02:15:00,
2013-09-06 22:19:00,66.0,64.5,30.04,East,91,0.0,0.0,95,0.00,,---,0.00,VWS V14.01,2013-09-07 02:19:00,
2013-09-06 22:20:00,68.5,66.1,30.03,East,91,0.0,0.0,92,0.00,,---,0.00,VWS V14.01,2013-09-07 02:20:00,
2013-09-06 22:24:00,65.9,64.7,30.04,East,91,0.0,0.0,96,0.00,,---,0.00,VWS V14.01,2013-09-07 02:24:00,
2013-09-06 22:25:00,68.3,65.9,30.03,East,91,0.0,0.0,92,0.00,,---,0.00,VWS V14.01,2013-09-07 02:25:00,
2013-09-06 22:29:00,65.9,64.7,30.04,East,91,0.0,0.0,96,0.00,,---,0.00,VWS V14.01,2013-09-07 02:29:00,
2013-09-06 22:30:00,68.1,66.0,30.03,East,91,0.0,0.0,93,0.00,,---,0.00,VWS V14.01,2013-09-07 02:30:00,
2013-09-06 22:34:00,65.8,64.6,30.04,East,91,0.0,0.0,96,0.00,,---,0.00,VWS V14.01,2013-09-07 02:34:00,
2013-09-06 22:35:00,67.8,65.4,30.03,East,91,0.0,0.0,92,0.00,,---,0.00,VWS V14.01,2013-09-07 02:35:00,
2013-09-06 22:39:00,65.7,64.5,30.04,East,91,0.0,0.0,96,0.00,,---,0.00,VWS V14.01,2013-09-07 02:39:00,
2013-09-06 22:40:00,67.5,65.1,30.04,East,91,0.0,0.0,92,0.00,,---,0.00,VWS V14.01,2013-09-07 02:40:00,
2013-09-06 22:44:00,65.6,64.4,30.04,East,91,0.0,0.0,96,0.00,,---,0.00,VWS V14.01,2013-09-07 02:44:00,
2013-09-06 22:45:00,67.3,65.5,30.04,East,91,0.0,0.0,94,0.00,,---,0.00,VWS V14.01,2013-09-07 02:45:00,
2013-09-06 22:49:00,65.5,64.3,30.04,East,91,0.0,0.0,96,0.00,,---,0.00,VWS V14.01,2013-09-07 02:49:00,
2013-09-06 22:50:00,67.1,65.3,30.04,East,91,0.0,0.0,94,0.00,,---,0.00,VWS V14.01,2013-09-07 02:50:00,
2013-09-06 22:54:00,65.5,64.3,30.04,East,91,0.0,0.0,96,0.00,,---,0.00,VWS V14.01,2013-09-07 02:54:00,
2013-09-06 22:55:00,66.9,65.4,30.04,East,91,0.0,0.0,95,0.00,,---,0.00,VWS V14.01,2013-09-07 02:55:00,
2013-09-06 22:59:00,65.4,64.2,30.04,East,91,0.0,0.0,96,0.00,,---,0.00,VWS V14.01,2013-09-07 02:59:00,
2013-09-06 23:00:00,66.8,65.3,30.04,East,91,0.0,0.0,95,0.00,,---,0.00,VWS V14.01,2013-09-07 03:00:00,
2013-09-06 23:04:00,65.2,64.0,30.04,East,91,0.0,0.0,96,0.00,,---,0.00,VWS V14.01,2013-09-07 03:04:00,
2013-09-06 23:05:00,66.6,65.4,30.04,East,91,0.0,0.0,96,0.00,,---,0.00,VWS V14.01,2013-09-07 03:05:00,
2013-09-06 23:09:00,65.1,64.2,30.04,East,91,0.0,0.0,97,0.00,,---,0.00,VWS V14.01,2013-09-07 03:09:00,
2013-09-06 23:10:00,66.5,65.0,30.04,East,91,0.0,0.0,95,0.00,,---,0.00,VWS V14.01,2013-09-07 03:10:00,
2013-09-06 23:14:00,65.0,64.1,30.04,East,91,0.0,0.0,97,0.00,,---,0.00,VWS V14.01,2013-09-07 03:14:00,
2013-09-06 23:15:00,66.3,64.8,30.04,East,91,0.0,0.0,95,0.00,,---,0.00,VWS V14.01,2013-09-07 03:15:00,
2013-09-06 23:19:00,64.8,63.9,30.04,East,91,0.0,0.0,97,0.00,,---,0.00,VWS V14.01,2013-09-07 03:19:00,
2013-09-06 23:20:00,66.0,64.5,30.04,East,91,0.0,0.0,95,0.00,,---,0.00,VWS V14.01,2013-09-07 03:20:00,
2013-09-06 23:24:00,64.7,63.8,30.04,East,91,0.0,0.0,97,0.00,,---,0.00,VWS V14.01,2013-09-07 03:24:00,
2013-09-06 23:25:00,65.9,64.7,30.04,East,91,0.0,0.0,96,0.00,,---,0.00,VWS V14.01,2013-09-07 03:25:00,
2013-09-06 23:29:00,64.7,63.8,30.05,East,91,0.0,0.0,97,0.00,,---,0.00,VWS V14.01,2013-09-07 03:29:00,
2013-09-06 23:30:00,65.9,64.7,30.04,East,91,0.0,0.0,96,0.00,,---,0.00,VWS V14.01,2013-09-07 03:30:00,
2013-09-06 23:34:00,64.6,63.7,30.05,East,91,0.0,0.0,97,0.00,,---,0.00,VWS V14.01,2013-09-07 03:34:00,
2013-09-06 23:35:00,65.8,64.6,30.04,East,91,0.0,0.0,96,0.00,,---,0.00,VWS V14.01,2013-09-07 03:35:00,
2013-09-06 23:39:00,64.4,63.5,30.05,East,91,0.0,0.0,97,0.00,,---,0.00,VWS V14.01,2013-09-07 03:39:00,
2013-09-06 23:40:00,65.7,64.5,30.04,East,91,0.0,0.0,96,0.00,,---,0.00,VWS V14.01,2013-09-07 03:40:00,
2013-09-06 23:44:00,64.5,63.9,30.04,East,91,0.0,0.0,98,0.00,,---,0.00,VWS V14.01,2013-09-07 03:44:00,
2013-09-06 23:45:00,65.6,64.4,30.04,East,91,0.0,0.0,96,0.00,,---,0.00,VWS V14.01,2013-09-07 03:45:00,
2013-09-06 23:49:00,64.4,63.5,30.05,East,91,0.0,0.0,97,0.00,,---,0.00,VWS V14.01,2013-09-07 03:49:00,
2013-09-06 23:50:00,65.5,64.3,30.04,East,91,0.0,0.0,96,0.00,,---,0.00,VWS V14.01,2013-09-07 03:50:00,
2013-09-06 23:54:00,64.1,63.2,30.05,East,91,0.0,0.0,97,0.00,,---,0.00,VWS V14.01,2013-09-07 03:54:00,
2013-09-06 23:55:00,65.5,64.3,30.04,East,91,0.0,0.0,96,0.00,,---,0.00,VWS V14.01,2013-09-07 03:55:00,
2013-09-06 23:59:00,64.1,63.5,30.05,East,91,0.0,0.0,98,0.00,,---,0.00,VWS V14.01,2013-09-07 03:59:00,